Terminal Aerodrome Forecast
Issued by NWS Birmingham, AL

Home | Current Version | Previous Version | Text Only | Print | Product List | Glossary On
Versions: 1 2 3 4 5 6 7 8 9 10 11 12 13 14 15 16 17 18 19 20 21
329
FTUS44 KBMX 281720
TAFBHM
TAF
KBHM 281720Z 2818/0118 17008G16KT P6SM OVC010
     FM010000 17008KT P6SM OVC015
     FM010900 19012KT 4SM BR VCSH OVC007
     FM011500 21012KT P6SM VCSH OVC015=

USA.gov is the U.S. government's official web portal to all federal, state and local government web resources and services.